Time;durP1;ratioP1;P1;durP2;ratioP2;P2;SDS_P1;SDS_P2;PMS_P1;PMS_P2;Temp;Humidity;BMP_temperature;BMP_pressure;BME280_temperature;BME280_humidity;BME280_pressure;Samples;Min_cycle;Max_cycle;Signal;HPM_P1;HPM_P2
2022/12/14 00:00:46;;;;;;;22.77;14.77;;;20.70;58.20;;;;;;5055025;28;20039;-76
2022/12/14 00:03:13;;;;;;;25.48;15.18;;;20.60;58.10;;;;;;5055873;28;20071;-76
2022/12/14 00:05:40;;;;;;;27.35;16.42;;;20.50;58.10;;;;;;5052618;28;20041;-76
2022/12/14 00:08:07;;;;;;;24.52;15.60;;;20.50;58.20;;;;;;5052788;28;20051;-76
2022/12/14 00:10:35;;;;;;;31.25;16.25;;;20.50;58.00;;;;;;5059621;28;20037;-77
2022/12/14 00:13:02;;;;;;;27.67;17.13;;;20.40;57.90;;;;;;5068242;28;20045;-76
2022/12/14 00:15:28;;;;;;;24.13;17.38;;;20.50;57.90;;;;;;5057199;28;20032;-77
2022/12/14 00:17:54;;;;;;;32.33;18.92;;;20.50;57.80;;;;;;5068009;28;20028;-77
2022/12/14 00:20:20;;;;;;;33.55;20.35;;;20.50;57.90;;;;;;5068420;28;20477;-77
2022/12/14 00:22:46;;;;;;;35.88;20.05;;;20.40;57.90;;;;;;5053610;28;20033;-77
2022/12/14 00:25:12;;;;;;;29.30;17.33;;;20.30;58.00;;;;;;5053494;28;20037;-76
2022/12/14 00:27:45;;;;;;;29.48;18.02;;;20.30;58.00;;;;;;5053920;28;20418;-77
2022/12/14 00:30:13;;;;;;;32.92;18.45;;;20.40;57.90;;;;;;5065371;28;20043;-77
2022/12/14 00:32:42;;;;;;;30.02;17.35;;;20.50;57.90;;;;;;5072563;28;20040;-77
2022/12/14 00:35:10;;;;;;;27.77;18.60;;;20.40;57.80;;;;;;5062755;28;20098;-76
2022/12/14 00:37:37;;;;;;;22.73;14.73;;;20.30;57.70;;;;;;5001818;28;20046;-76
2022/12/14 00:40:07;;;;;;;23.13;14.02;;;20.40;57.60;;;;;;5065731;28;20032;-77
2022/12/14 00:42:33;;;;;;;18.35;13.50;;;20.40;57.50;;;;;;5071253;28;20058;-77
2022/12/14 00:45:01;;;;;;;20.67;11.85;;;20.50;57.90;;;;;;5067777;28;20033;-75
2022/12/14 00:47:27;;;;;;;19.67;12.60;;;20.40;57.70;;;;;;5071578;28;20123;-76
2022/12/14 00:49:53;;;;;;;17.83;12.38;;;20.30;57.50;;;;;;5071931;28;20025;-76
2022/12/14 00:52:19;;;;;;;22.60;13.80;;;20.40;57.50;;;;;;5072850;28;20029;-73
2022/12/14 00:54:45;;;;;;;22.98;14.05;;;20.40;57.50;;;;;;5071627;28;20032;-73
2022/12/14 00:57:11;;;;;;;23.45;14.35;;;20.40;57.40;;;;;;5052975;28;20059;-74
2022/12/14 00:59:37;;;;;;;18.35;12.02;;;20.40;57.40;;;;;;5052532;28;20039;-73
2022/12/14 01:02:03;;;;;;;17.17;11.52;;;20.30;57.40;;;;;;5057385;28;20033;-77
2022/12/14 01:04:29;;;;;;;19.80;13.00;;;20.30;57.50;;;;;;5068806;28;20029;-74
2022/12/14 01:06:55;;;;;;;22.40;12.07;;;20.20;57.30;;;;;;5034115;28;20127;-75
2022/12/14 01:09:23;;;;;;;20.25;11.98;;;20.20;57.30;;;;;;5052821;28;20067;-76
2022/12/14 01:11:50;;;;;;;18.75;12.45;;;20.10;57.30;;;;;;5065976;28;20629;-76
2022/12/14 01:14:18;;;;;;;17.90;11.32;;;20.20;57.30;;;;;;5072599;28;20048;-76
2022/12/14 01:16:44;;;;;;;17.67;12.27;;;20.10;57.40;;;;;;5069973;28;20021;-75
2022/12/14 01:19:12;;;;;;;19.60;12.38;;;20.10;57.50;;;;;;5071596;28;20040;-75
2022/12/14 01:21:37;;;;;;;19.60;13.07;;;20.20;57.30;;;;;;5055171;28;20021;-76
2022/12/14 01:24:05;;;;;;;21.08;14.15;;;20.10;57.40;;;;;;5071891;28;20375;-76
2022/12/14 01:26:34;;;;;;;30.70;15.55;;;20.10;57.50;;;;;;5072503;28;20036;-77
2022/12/14 01:29:01;;;;;;;26.10;15.10;;;20.10;57.40;;;;;;5056450;28;20470;-77
2022/12/14 01:31:30;;;;;;;23.40;14.65;;;20.20;57.20;;;;;;5057568;28;20051;-74
2022/12/14 01:33:56;;;;;;;26.13;14.45;;;20.20;57.10;;;;;;5051817;28;20051;-75
2022/12/14 01:36:25;;;;;;;24.75;14.50;;;20.20;57.00;;;;;;5071181;28;20036;-77
2022/12/14 01:38:56;;;;;;;24.25;15.38;;;20.20;56.90;;;;;;5072167;28;20170;-76
2022/12/14 01:41:24;;;;;;;25.40;14.50;;;20.30;56.90;;;;;;5067803;28;20044;-76
2022/12/14 01:44:03;;;;;;;25.20;15.93;;;20.40;56.80;;;;;;5071289;28;20024;-77
2022/12/14 01:46:33;;;;;;;26.63;16.17;;;20.30;56.70;;;;;;5069972;28;20037;-76
2022/12/14 01:49:10;;;;;;;26.63;16.65;;;20.30;56.60;;;;;;5070199;28;20472;-74
2022/12/14 01:51:38;;;;;;;27.02;16.77;;;20.30;56.60;;;;;;5070042;28;20028;-76
2022/12/14 01:54:07;;;;;;;24.80;15.50;;;20.30;56.40;;;;;;5070571;28;20028;-74
2022/12/14 01:56:35;;;;;;;26.13;15.68;;;20.20;56.40;;;;;;5071770;28;20571;-76
2022/12/14 01:59:07;;;;;;;25.65;16.70;;;20.20;56.30;;;;;;5071059;28;20046;-76
2022/12/14 02:01:33;;;;;;;25.85;16.92;;;20.20;56.40;;;;;;5067686;28;20106;-77
2022/12/14 02:04:00;;;;;;;27.40;17.00;;;20.30;56.50;;;;;;5057645;28;20121;-74
2022/12/14 02:06:39;;;;;;;23.77;14.98;;;20.20;56.50;;;;;;5070624;28;20032;-76
2022/12/14 02:09:08;;;;;;;22.95;14.77;;;20.10;56.50;;;;;;5063168;28;20119;-76
2022/12/14 02:12:01;;;;;;;20.55;14.73;;;20.10;56.50;;;;;;5056022;28;20036;-76
2022/12/14 02:14:27;;;;;;;25.48;15.88;;;20.10;56.50;;;;;;5051310;28;20080;-76
2022/12/14 02:16:54;;;;;;;23.23;15.30;;;20.10;56.60;;;;;;5067429;28;20020;-75
2022/12/14 02:19:21;;;;;;;22.52;14.63;;;20.10;56.60;;;;;;5070638;28;20037;-75
2022/12/14 02:22:14;;;;;;;23.80;14.23;;;20.00;56.60;;;;;;5068866;28;20024;-76
2022/12/14 02:25:05;;;;;;;27.50;15.63;;;20.10;56.60;;;;;;5071103;28;20033;-77
2022/12/14 02:27:43;;;;;;;26.08;16.30;;;20.10;56.50;;;;;;5060956;28;20072;-76
2022/12/14 02:30:21;;;;;;;26.00;15.20;;;20.00;56.30;;;;;;5051452;28;20124;-75
2022/12/14 02:33:02;;;;;;;26.90;15.80;;;20.10;56.30;;;;;;5051453;28;20116;-75
2022/12/14 02:35:31;;;;;;;24.67;15.65;;;20.10;56.30;;;;;;5060504;28;20033;-76
2022/12/14 02:38:10;;;;;;;23.95;15.50;;;20.00;56.50;;;;;;5063471;28;20763;-76
2022/12/14 02:40:51;;;;;;;29.58;15.65;;;20.00;56.30;;;;;;5052983;28;20032;-76
2022/12/14 02:43:43;;;;;;;24.17;15.52;;;20.00;56.30;;;;;;5070941;28;20032;-76
2022/12/14 02:46:25;;;;;;;25.50;15.82;;;20.00;56.10;;;;;;5046923;28;20032;-76
2022/12/14 02:49:00;;;;;;;21.38;15.25;;;20.10;56.20;;;;;;5050872;28;20052;-75
2022/12/14 02:51:49;;;;;;;21.33;13.95;;;20.10;56.10;;;;;;5053250;28;20095;-76
2022/12/14 02:54:44;;;;;;;23.73;15.02;;;20.10;56.10;;;;;;5050986;28;20037;-75
2022/12/14 02:57:25;;;;;;;22.50;14.65;;;20.20;55.90;;;;;;4994959;28;20550;-76
2022/12/14 02:59:56;;;;;;;22.23;14.00;;;20.20;55.80;;;;;;4988763;28;20518;-77
2022/12/14 03:02:22;;;;;;;28.23;16.83;;;20.20;55.70;;;;;;4989165;28;20038;-77
2022/12/14 03:04:49;;;;;;;26.85;16.75;;;20.10;55.70;;;;;;4991378;28;20041;-76
2022/12/14 03:07:59;;;;;;;27.25;16.35;;;20.00;55.60;;;;;;5001125;28;20030;-76
2022/12/14 03:10:42;;;;;;;28.42;18.38;;;20.10;55.80;;;;;;5008510;28;20379;-76
2022/12/14 03:13:18;;;;;;;33.83;18.02;;;20.00;55.80;;;;;;5017476;28;20056;-77
2022/12/14 03:15:49;;;;;;;30.10;16.70;;;20.00;55.80;;;;;;5042235;28;20045;-75
2022/12/14 03:18:20;;;;;;;23.02;14.02;;;20.00;55.80;;;;;;5027779;28;20039;-76
2022/12/14 03:20:49;;;;;;;26.27;15.02;;;19.90;55.90;;;;;;5035152;28;20041;-73
2022/12/14 03:23:23;;;;;;;26.23;16.02;;;20.00;55.90;;;;;;5047597;28;20536;-75
2022/12/14 03:26:01;;;;;;;29.85;17.67;;;19.90;56.00;;;;;;5047287;28;20049;-75
2022/12/14 03:28:30;;;;;;;31.65;18.52;;;19.80;55.90;;;;;;5047337;28;20053;-76
2022/12/14 03:31:04;;;;;;;28.00;16.90;;;19.80;56.00;;;;;;5040209;28;20139;-76
2022/12/14 03:33:32;;;;;;;29.08;18.48;;;19.80;56.10;;;;;;5038776;28;20079;-76
2022/12/14 03:36:24;;;;;;;29.25;16.95;;;19.80;56.00;;;;;;5080277;28;20039;-73
2022/12/14 03:38:54;;;;;;;26.15;15.30;;;19.80;55.90;;;;;;5076414;28;20123;-77
2022/12/14 03:41:29;;;;;;;29.13;16.00;;;19.90;55.90;;;;;;5070366;28;20416;-76
2022/12/14 03:44:20;;;;;;;26.88;16.45;;;19.90;55.80;;;;;;5074239;28;20036;-76
2022/12/14 03:47:18;;;;;;;24.55;15.05;;;19.80;55.70;;;;;;5088851;28;20117;-74
2022/12/14 03:50:07;;;;;;;23.85;14.77;;;19.90;56.00;;;;;;5076865;28;20044;-76
2022/12/14 03:52:48;;;;;;;24.08;15.35;;;19.90;55.80;;;;;;5070433;28;20064;-77
2022/12/14 03:55:45;;;;;;;31.55;17.48;;;19.90;55.80;;;;;;5081837;28;20029;-76
2022/12/14 03:58:39;;;;;;;31.42;17.55;;;20.00;55.60;;;;;;5073551;28;20024;-76
2022/12/14 04:01:17;;;;;;;;;;;20.00;55.50;;;;;;5081476;28;20077;-75
2022/12/14 04:04:26;;;;;;;26.92;15.90;;;19.90;55.40;;;;;;5081315;28;19916;-73
2022/12/14 04:07:06;;;;;;;25.30;15.90;;;20.00;55.30;;;;;;5011060;28;20050;-72
2022/12/14 04:18:55;;;;;;;24.00;16.05;;;20.00;55.30;;;;;;5013982;28;20050;-76
2022/12/14 04:21:31;;;;;;;25.33;15.80;;;20.00;55.10;;;;;;4983209;28;20046;-75
2022/12/14 04:27:01;;;;;;;25.30;16.05;;;19.90;55.30;;;;;;4991527;28;20062;-74
2022/12/14 04:32:34;;;;;;;28.30;15.38;;;19.80;55.40;;;;;;4990434;28;20046;-76
2022/12/14 04:35:11;;;;;;;25.25;15.98;;;19.90;55.40;;;;;;4985206;28;20121;-76
2022/12/14 04:37:41;;;;;;;29.00;14.77;;;19.90;55.70;;;;;;4991251;28;20117;-76
2022/12/14 04:40:43;;;;;;;26.55;15.55;;;19.90;55.50;;;;;;4991654;28;20126;-74
2022/12/14 04:43:18;;;;;;;29.52;15.77;;;19.90;55.30;;;;;;5001756;28;20042;-76
2022/12/14 04:46:10;;;;;;;24.48;15.93;;;19.90;55.30;;;;;;5011455;28;20025;-76
2022/12/14 04:49:21;;;;;;;22.98;14.57;;;20.00;55.30;;;;;;5042139;28;20052;-74
2022/12/14 04:52:13;;;;;;;26.52;16.00;;;20.00;55.20;;;;;;4988891;28;20046;-75
2022/12/14 04:54:44;;;;;;;26.85;15.85;;;20.10;55.00;;;;;;4990714;28;20038;-72
2022/12/14 04:57:22;;;;;;;27.13;16.45;;;20.00;54.80;;;;;;4990706;28;20046;-74
2022/12/14 04:59:48;;;;;;;27.33;16.83;;;20.10;55.20;;;;;;4990613;28;20042;-73
2022/12/14 05:02:45;;;;;;;27.05;15.95;;;19.80;55.40;;;;;;4989147;28;20050;-75
2022/12/14 05:05:16;;;;;;;27.48;17.15;;;19.90;55.50;;;;;;4989442;28;20096;-73
2022/12/14 05:07:52;;;;;;;30.02;17.67;;;19.90;55.40;;;;;;4990208;28;20050;-73
2022/12/14 05:10:45;;;;;;;24.50;16.15;;;19.80;55.30;;;;;;4990590;28;20046;-75
2022/12/14 05:13:23;;;;;;;27.33;16.65;;;20.00;55.10;;;;;;4989548;28;20052;-75
2022/12/14 05:15:53;;;;;;;23.95;15.50;;;19.90;55.10;;;;;;4989371;28;20125;-73
2022/12/14 05:18:19;;;;;;;24.85;15.10;;;20.00;55.00;;;;;;4990255;28;20539;-75
2022/12/14 05:20:46;;;;;;;27.02;16.33;;;19.90;55.00;;;;;;5012398;28;20037;-73
2022/12/14 05:23:12;;;;;;;27.40;17.30;;;20.00;54.80;;;;;;4996936;28;20041;-72
2022/12/14 05:25:38;;;;;;;27.25;17.13;;;20.10;54.50;;;;;;5048745;28;20052;-75
2022/12/14 05:28:04;;;;;;;31.63;19.70;;;20.10;54.40;;;;;;5079065;28;20032;-75
2022/12/14 05:30:30;;;;;;;36.00;19.85;;;20.10;54.40;;;;;;5091921;28;20452;-75
2022/12/14 05:32:56;;;;;;;35.78;20.08;;;20.20;54.40;;;;;;5078256;28;20070;-74
2022/12/14 05:35:22;;;;;;;35.08;19.90;;;20.10;54.40;;;;;;5081639;28;20060;-74
2022/12/14 05:37:48;;;;;;;67.63;30.52;;;20.00;54.50;;;;;;5091883;28;20028;-74
2022/12/14 05:40:14;;;;;;;50.00;26.77;;;20.00;54.60;;;;;;5083614;28;20540;-72
2022/12/14 05:42:40;;;;;;;54.50;30.65;;;20.00;54.70;;;;;;5079643;28;20036;-74
2022/12/14 05:45:08;;;;;;;51.58;31.73;;;19.80;54.70;;;;;;5072196;28;20040;-74
2022/12/14 05:47:34;;;;;;;48.15;27.48;;;19.80;54.70;;;;;;5073705;28;20041;-74
2022/12/14 05:50:00;;;;;;;40.30;24.92;;;19.80;54.90;;;;;;5073487;28;20082;-74
2022/12/14 05:52:26;;;;;;;49.97;26.33;;;19.80;54.90;;;;;;5037961;28;20052;-74
2022/12/14 05:54:53;;;;;;;44.85;24.23;;;19.70;54.90;;;;;;5075733;28;20063;-74
2022/12/14 05:57:19;;;;;;;38.78;22.88;;;19.70;54.90;;;;;;5073015;28;20032;-74
2022/12/14 05:59:45;;;;;;;29.08;18.23;;;19.70;54.90;;;;;;5082679;28;20063;-74
2022/12/14 06:02:11;;;;;;;26.70;17.23;;;19.70;55.00;;;;;;5086261;28;20068;-74
2022/12/14 06:04:37;;;;;;;20.17;14.52;;;19.70;54.80;;;;;;5078138;28;20448;-74
2022/12/14 06:07:03;;;;;;;20.20;14.85;;;19.80;54.80;;;;;;5089809;28;20032;-74
2022/12/14 06:09:29;;;;;;;26.13;16.95;;;19.80;54.70;;;;;;5072835;28;20047;-74
2022/12/14 06:11:55;;;;;;;20.95;15.55;;;19.70;54.50;;;;;;5076094;28;20035;-72
2022/12/14 06:14:23;;;;;;;28.02;17.17;;;19.80;54.50;;;;;;5065475;28;20044;-69
2022/12/14 06:16:50;;;;;;;28.50;18.77;;;19.90;54.60;;;;;;5019821;28;20493;-71
2022/12/14 06:19:16;;;;;;;18.77;13.85;;;19.80;56.70;;;;;;5039786;28;20095;-73
2022/12/14 06:21:43;;;;;;;21.35;13.38;;;20.00;52.30;;;;;;5066235;28;20032;-72
2022/12/14 06:24:11;;;;;;;20.63;13.32;;;20.10;48.70;;;;;;5042348;28;20059;-72
2022/12/14 06:26:40;;;;;;;22.20;15.18;;;20.30;49.10;;;;;;5007603;28;20094;-71
2022/12/14 06:29:12;;;;;;;28.88;19.13;;;20.50;48.80;;;;;;5056859;28;20055;-71
2022/12/14 06:31:38;;;;;;;3.35;2.08;;;20.70;50.20;;;;;;5067394;28;20028;-72
2022/12/14 06:34:04;;;;;;;2.53;2.38;;;20.60;54.80;;;;;;5050640;28;20025;-72
2022/12/14 06:36:33;;;;;;;6.35;3.05;;;21.00;60.00;;;;;;5033020;28;20036;-71
2022/12/14 06:39:10;;;;;;;2.42;2.08;;;21.40;58.00;;;;;;5046729;28;20087;-72
2022/12/14 06:41:36;;;;;;;1.77;1.67;;;21.60;54.80;;;;;;5070533;28;20025;-74
2022/12/14 06:44:04;;;;;;;1.95;1.85;;;21.80;53.30;;;;;;5071300;28;20044;-75
2022/12/14 06:46:30;;;;;;;26.17;15.75;;;22.00;52.10;;;;;;5070214;28;20103;-75
2022/12/14 06:48:57;;;;;;;27.25;14.35;;;22.10;50.80;;;;;;5070716;28;20139;-74
2022/12/14 06:51:24;;;;;;;24.90;14.75;;;22.00;49.00;;;;;;5071395;28;20466;-76
2022/12/14 06:53:55;;;;;;;20.90;13.57;;;22.00;46.90;;;;;;5070503;28;20115;-71
2022/12/14 06:56:23;;;;;;;24.42;13.00;;;22.10;46.40;;;;;;5070232;28;20028;-71
2022/12/14 06:58:49;;;;;;;21.23;13.93;;;22.10;47.10;;;;;;5070778;28;20033;-70
2022/12/14 07:01:19;;;;;;;18.83;11.57;;;22.10;50.70;;;;;;5070443;28;20040;-69
2022/12/14 07:03:50;;;;;;;24.38;15.68;;;22.10;50.80;;;;;;5068114;28;20056;-69
2022/12/14 07:06:16;;;;;;;26.30;15.38;;;22.10;50.50;;;;;;5069794;28;20039;-72
2022/12/14 07:08:43;;;;;;;25.00;16.60;;;21.80;50.20;;;;;;5050707;28;20048;-71
2022/12/14 07:11:12;;;;;;;24.20;16.05;;;21.60;51.90;;;;;;5059017;28;20066;-72
2022/12/14 07:13:38;;;;;;;33.65;19.52;;;21.40;52.70;;;;;;5070326;28;20076;-71
2022/12/14 07:16:06;;;;;;;30.77;20.73;;;21.30;54.50;;;;;;5070994;28;20524;-71
2022/12/14 07:18:32;;;;;;;29.40;18.67;;;21.10;55.40;;;;;;5068911;28;20477;-73
2022/12/14 07:21:08;;;;;;;32.10;17.58;;;21.00;56.80;;;;;;5069784;28;20071;-71
2022/12/14 07:23:36;;;;;;;28.13;17.58;;;20.90;57.50;;;;;;5069093;28;20032;-71
2022/12/14 07:26:08;;;;;;;29.35;17.98;;;20.90;58.10;;;;;;5069518;28;20025;-70
2022/12/14 07:28:37;;;;;;;27.00;16.05;;;20.80;58.40;;;;;;5067881;28;20460;-70
2022/12/14 07:31:05;;;;;;;27.45;16.75;;;20.80;59.60;;;;;;5041562;28;20151;-71
2022/12/14 07:33:31;;;;;;;24.25;16.17;;;20.80;60.20;;;;;;5068816;28;20044;-72
2022/12/14 07:36:05;;;;;;;28.10;15.45;;;20.70;61.40;;;;;;5073250;28;20100;-73
2022/12/14 07:38:33;;;;;;;24.55;15.32;;;20.80;62.70;;;;;;5054405;28;20037;-72
2022/12/14 07:41:11;;;;;;;24.75;15.45;;;20.70;62.90;;;;;;5054623;28;20041;-74
2022/12/14 07:43:39;;;;;;;23.13;16.58;;;20.70;62.70;;;;;;5051667;28;20048;-72
2022/12/14 07:46:09;;;;;;;32.78;18.83;;;20.60;63.10;;;;;;5060415;28;20033;-75
2022/12/14 07:48:36;;;;;;;31.98;18.95;;;20.80;63.30;;;;;;5066086;28;20032;-77
2022/12/14 07:51:07;;;;;;;33.72;19.80;;;20.80;63.50;;;;;;5074610;28;20037;-76
2022/12/14 07:53:34;;;;;;;30.10;17.75;;;20.70;63.70;;;;;;5073486;28;20058;-74
2022/12/14 07:56:03;;;;;;;27.05;16.95;;;20.90;64.20;;;;;;5074388;28;20028;-74
2022/12/14 07:58:30;;;;;;;26.88;16.77;;;20.80;64.00;;;;;;5073747;28;20167;-70
2022/12/14 08:01:11;;;;;;;24.90;16.00;;;20.80;63.60;;;;;;5074279;28;20469;-73
2022/12/14 08:03:43;;;;;;;24.40;16.45;;;20.80;63.70;;;;;;5068530;28;20044;-69
2022/12/14 08:06:10;;;;;;;20.65;13.43;;;20.90;63.60;;;;;;5046654;28;20041;-71
2022/12/14 08:08:37;;;;;;;23.90;14.13;;;21.00;63.00;;;;;;5072041;28;20040;-70
2022/12/14 08:11:04;;;;;;;21.30;14.20;;;21.10;66.70;;;;;;5071614;28;20028;-71
2022/12/14 08:13:30;;;;;;;28.42;14.57;;;21.70;63.70;;;;;;5066141;28;20583;-70
2022/12/14 08:16:03;;;;;;;19.45;13.38;;;22.00;47.10;;;;;;5089224;28;20028;-72
2022/12/14 08:18:29;;;;;;;;;;;22.10;56.30;;;;;;5076773;28;20135;-72
2022/12/14 08:20:55;;;;;;;20.20;13.52;;;22.20;59.00;;;;;;5075882;28;19940;-71
2022/12/14 08:23:21;;;;;;;22.40;13.50;;;22.10;59.30;;;;;;5088075;28;20477;-71
2022/12/14 08:25:55;;;;;;;24.60;13.73;;;22.10;60.90;;;;;;5076033;28;20016;-70
2022/12/14 08:28:21;;;;;;;20.15;13.55;;;21.90;61.60;;;;;;5090889;28;20131;-72
2022/12/14 08:30:47;;;;;;;22.95;15.15;;;21.80;61.90;;;;;;5094231;28;20058;-71
2022/12/14 08:33:13;;;;;;;21.38;13.52;;;21.90;62.50;;;;;;5080950;28;20409;-72
2022/12/14 08:35:39;;;;;;;20.20;14.02;;;21.70;62.70;;;;;;5074330;28;20028;-72
2022/12/14 08:38:05;;;;;;;21.70;15.07;;;21.80;63.10;;;;;;5056725;28;20048;-70
2022/12/14 08:40:34;;;;;;;18.98;13.43;;;21.70;63.10;;;;;;5071114;28;20097;-70
2022/12/14 08:43:00;;;;;;;25.95;14.70;;;21.70;62.70;;;;;;5074853;28;20039;-71
2022/12/14 08:45:26;;;;;;;22.85;14.65;;;21.70;62.60;;;;;;5086228;28;20024;-70
2022/12/14 08:47:55;;;;;;;21.63;14.05;;;21.80;62.40;;;;;;5080095;28;20048;-70
2022/12/14 08:50:21;;;;;;;22.63;13.98;;;21.70;62.00;;;;;;5087042;28;20024;-70
2022/12/14 08:52:47;;;;;;;18.48;13.10;;;21.80;61.70;;;;;;5090467;28;20036;-70
2022/12/14 08:55:13;;;;;;;20.80;12.95;;;21.70;61.70;;;;;;5087828;28;20111;-71
2022/12/14 08:57:39;;;;;;;20.77;12.68;;;21.80;61.70;;;;;;5082989;28;20020;-74
2022/12/14 09:00:08;;;;;;;19.90;12.50;;;21.70;61.80;;;;;;5087610;28;20504;-73
2022/12/14 09:02:34;;;;;;;23.15;12.90;;;21.80;61.70;;;;;;5050852;28;20051;-73
2022/12/14 09:05:00;;;;;;;22.73;12.02;;;21.70;63.70;;;;;;5085689;28;20039;-72
2022/12/14 09:07:30;;;;;;;22.15;12.23;;;21.70;65.40;;;;;;5092357;28;20028;-72
2022/12/14 09:09:56;;;;;;;19.08;11.98;;;21.90;66.80;;;;;;5087046;28;20047;-73
2022/12/14 09:12:22;;;;;;;21.63;11.90;;;21.90;65.60;;;;;;5082102;28;20397;-72
2022/12/14 09:14:49;;;;;;;25.60;11.93;;;21.90;64.60;;;;;;5077088;28;20049;-72
2022/12/14 09:17:16;;;;;;;18.67;11.45;;;21.90;64.30;;;;;;5085324;28;20029;-72
2022/12/14 09:19:43;;;;;;;17.17;11.38;;;21.90;64.00;;;;;;5084624;28;20468;-72
2022/12/14 09:22:09;;;;;;;19.35;11.55;;;21.80;63.00;;;;;;5088885;28;20026;-76
2022/12/14 09:24:35;;;;;;;21.27;12.00;;;21.90;63.70;;;;;;5092505;28;20032;-73
2022/12/14 09:27:02;;;;;;;18.83;11.73;;;22.00;62.50;;;;;;5091414;28;20063;-72
2022/12/14 09:29:29;;;;;;;16.83;11.52;;;21.90;62.10;;;;;;5073311;28;20048;-72
2022/12/14 09:31:55;;;;;;;17.30;12.23;;;21.90;62.50;;;;;;5092918;28;20062;-73
2022/12/14 09:34:22;;;;;;;19.08;11.68;;;22.00;62.50;;;;;;5092670;28;20061;-73
2022/12/14 09:36:48;;;;;;;21.35;12.50;;;21.80;62.60;;;;;;5081214;28;20614;-72
2022/12/14 09:39:14;;;;;;;16.50;12.40;;;21.80;62.80;;;;;;5072299;28;20033;-72
2022/12/14 09:41:59;;;;;;;22.60;12.52;;;21.90;63.20;;;;;;5072541;28;20036;-72
2022/12/14 09:44:51;;;;;;;19.80;12.77;;;21.70;63.20;;;;;;5072277;28;20033;-72
2022/12/14 09:47:49;;;;;;;21.15;12.38;;;21.70;63.20;;;;;;5009653;28;20080;-72
2022/12/14 09:50:19;;;;;;;18.88;11.18;;;21.70;63.40;;;;;;5009992;28;20045;-73
2022/12/14 09:52:57;;;;;;;16.85;11.55;;;21.70;63.20;;;;;;5020296;28;20406;-72
2022/12/14 09:55:41;;;;;;;17.85;11.48;;;21.70;63.40;;;;;;5029340;28;20025;-73
2022/12/14 09:58:13;;;;;;;14.38;10.05;;;21.80;63.40;;;;;;5026102;28;20041;-72
2022/12/14 10:00:48;;;;;;;10.68;7.10;;;21.90;63.40;;;;;;5009343;28;20041;-73
2022/12/14 10:03:41;;;;;;;12.63;7.00;;;21.90;62.90;;;;;;4976637;28;20703;-73
2022/12/14 10:06:07;;;;;;;;;;;22.20;61.90;;;;;;5009694;28;20510;-72
2022/12/14 10:08:48;;;;;;;11.15;6.70;;;22.30;61.10;;;;;;5010281;28;19917;-72
2022/12/14 10:11:48;;;;;;;8.23;6.47;;;22.40;60.80;;;;;;5009368;28;20128;-72
2022/12/14 10:14:28;;;;;;;16.10;6.75;;;22.60;60.30;;;;;;5009398;28;20072;-73
2022/12/14 10:17:08;;;;;;;11.65;7.78;;;22.50;61.00;;;;;;5009476;28;20053;-72
2022/12/14 10:19:55;;;;;;;9.30;6.32;;;22.50;59.90;;;;;;5009768;28;20046;-73
2022/12/14 10:22:33;;;;;;;9.70;6.70;;;22.40;60.80;;;;;;5029096;28;20072;-72
2022/12/14 10:25:17;;;;;;;9.63;6.55;;;22.60;60.40;;;;;;5075026;28;20036;-73
2022/12/14 10:28:11;;;;;;;11.93;7.10;;;22.50;60.10;;;;;;5091460;28;20152;-72
2022/12/14 10:30:37;;;;;;;9.50;6.10;;;22.60;60.00;;;;;;5048612;28;20053;-72
2022/12/14 10:33:13;;;;;;;7.10;5.45;;;22.60;60.00;;;;;;5048217;28;20049;-72
2022/12/14 10:35:54;;;;;;;7.80;6.20;;;22.60;59.90;;;;;;5046070;28;20033;-72
2022/12/14 10:38:38;;;;;;;8.65;5.45;;;22.70;59.00;;;;;;5038738;28;20068;-73
2022/12/14 10:41:38;;;;;;;10.20;7.15;;;22.60;60.00;;;;;;5029741;28;20629;-71
2022/12/14 10:44:21;;;;;;;11.00;6.95;;;22.60;59.10;;;;;;4980754;28;20045;-73
2022/12/14 10:47:15;;;;;;;8.32;5.15;;;22.60;60.20;;;;;;5000106;28;20037;-70
2022/12/14 10:49:49;;;;;;;9.25;6.15;;;22.60;57.20;;;;;;4993225;28;20046;-71
2022/12/14 10:52:18;;;;;;;17.25;6.15;;;22.80;49.10;;;;;;4995342;28;20134;-72
2022/12/14 10:55:02;;;;;;;13.13;6.10;;;22.90;44.90;;;;;;4988888;28;20136;-72
2022/12/14 10:57:28;;;;;;;8.25;5.75;;;23.00;45.10;;;;;;4985738;28;20057;-71
2022/12/14 10:59:55;;;;;;;8.52;6.13;;;22.90;44.60;;;;;;4986289;28;20577;-73
2022/12/14 11:02:23;;;;;;;9.52;6.03;;;22.80;42.80;;;;;;4969555;28;20078;-71
2022/12/14 11:04:52;;;;;;;10.77;6.68;;;22.80;42.60;;;;;;4953928;28;20041;-72
2022/12/14 11:07:37;;;;;;;8.48;6.45;;;22.80;42.60;;;;;;4996196;28;20088;-70
2022/12/14 11:10:17;;;;;;;7.05;5.32;;;22.80;41.70;;;;;;5008603;28;20517;-71
2022/12/14 11:13:06;;;;;;;7.82;6.40;;;22.70;41.10;;;;;;5008325;28;20045;-71
2022/12/14 11:15:44;;;;;;;9.10;5.88;;;22.70;40.20;;;;;;5000231;28;20136;-71
2022/12/14 11:18:16;;;;;;;9.18;4.60;;;22.60;39.40;;;;;;5002877;28;20601;-71
2022/12/14 11:21:00;;;;;;;9.05;4.82;;;22.60;40.40;;;;;;5035829;28;20040;-71
2022/12/14 11:23:37;;;;;;;6.85;5.00;;;22.60;40.60;;;;;;5071927;28;20048;-71
2022/12/14 11:26:12;;;;;;;9.35;6.13;;;22.60;41.70;;;;;;5086965;28;20671;-71
2022/12/14 11:28:45;;;;;;;10.88;5.60;;;22.60;41.20;;;;;;5070519;28;20436;-70
2022/12/14 11:31:19;;;;;;;6.45;4.35;;;22.60;41.60;;;;;;5070820;28;20431;-70
2022/12/14 11:33:53;;;;;;;7.30;4.68;;;22.60;44.10;;;;;;5085841;28;20025;-71
2022/12/14 11:36:35;;;;;;;9.10;4.85;;;22.60;40.80;;;;;;5089869;28;20115;-71
2022/12/14 11:39:17;;;;;;;5.60;4.78;;;22.80;46.40;;;;;;5085811;28;20059;-72
2022/12/14 11:41:47;;;;;;;7.00;4.90;;;22.70;40.90;;;;;;5070832;28;20077;-70
2022/12/14 11:44:13;;;;;;;7.75;5.18;;;22.70;38.80;;;;;;5071098;28;20265;-71
2022/12/14 11:46:43;;;;;;;7.18;5.20;;;22.70;42.00;;;;;;5069543;28;20051;-70
2022/12/14 11:49:22;;;;;;;8.32;5.72;;;22.60;40.00;;;;;;5069422;28;20024;-70
2022/12/14 11:51:57;;;;;;;8.70;5.90;;;22.70;41.00;;;;;;5081808;28;20065;-70
2022/12/14 11:54:23;;;;;;;5.40;4.25;;;22.50;40.90;;;;;;5088835;28;20051;-70
2022/12/14 11:56:50;;;;;;;6.63;4.78;;;22.70;45.20;;;;;;5079871;28;20066;-71
2022/12/14 11:59:18;;;;;;;8.40;6.38;;;23.00;47.10;;;;;;5079041;28;20493;-71
2022/12/14 12:01:44;;;;;;;8.40;5.50;;;23.20;44.80;;;;;;5086283;28;20048;-70
2022/12/14 12:04:16;;;;;;;7.35;5.63;;;23.10;45.80;;;;;;5079493;28;20480;-69
2022/12/14 12:06:42;;;;;;;10.43;6.68;;;23.00;43.30;;;;;;5071679;28;20040;-71
2022/12/14 12:09:28;;;;;;;9.80;6.13;;;23.10;42.10;;;;;;5065270;28;20048;-70
2022/12/14 12:11:54;;;;;;;7.15;5.03;;;23.10;42.50;;;;;;5067528;28;20036;-70
2022/12/14 12:14:35;;;;;;;9.32;5.55;;;23.00;41.70;;;;;;5068148;28;20040;-70
2022/12/14 12:17:15;;;;;;;9.23;5.88;;;22.80;37.60;;;;;;5067930;28;20506;-72
2022/12/14 12:19:41;;;;;;;8.18;6.15;;;22.80;45.40;;;;;;5053040;28;20037;-72
2022/12/14 12:22:09;;;;;;;10.35;6.40;;;22.90;54.90;;;;;;5066892;28;20040;-71
2022/12/14 12:25:07;;;;;;;13.70;5.85;;;22.90;55.50;;;;;;5059407;28;20047;-72
2022/12/14 12:27:34;;;;;;;11.95;6.13;;;23.10;56.20;;;;;;4990468;28;20062;-72
2022/12/14 12:30:20;;;;;;;9.50;6.80;;;23.00;56.10;;;;;;4979653;28;20583;-72
2022/12/14 12:32:51;;;;;;;14.57;6.70;;;23.00;56.80;;;;;;4989843;28;20055;-71
2022/12/14 12:35:48;;;;;;;7.88;6.03;;;23.00;56.90;;;;;;4985289;28;20042;-71
2022/12/14 12:38:35;;;;;;;8.65;5.93;;;22.90;57.20;;;;;;4988343;28;20082;-73
2022/12/14 12:41:26;;;;;;;10.05;6.35;;;22.80;57.00;;;;;;5018699;28;20785;-71
2022/12/14 12:44:23;;;;;;;8.15;5.82;;;22.70;57.50;;;;;;5024909;28;20147;-71
2022/12/14 12:47:05;;;;;;;11.13;6.95;;;22.70;56.70;;;;;;4952697;29;20051;-72
2022/12/14 12:49:32;;;;;;;13.17;6.13;;;22.70;57.50;;;;;;4964930;28;20039;-71
2022/12/14 12:52:03;;;;;;;10.45;6.32;;;22.80;57.40;;;;;;4970421;28;20046;-71
2022/12/14 12:54:34;;;;;;;11.13;6.95;;;22.80;56.70;;;;;;4949374;28;20039;-71
2022/12/14 12:57:04;;;;;;;10.68;6.25;;;22.60;57.50;;;;;;4971305;28;20037;-71
2022/12/14 12:59:42;;;;;;;4.57;3.70;;;22.70;57.50;;;;;;4971727;28;20042;-71
2022/12/14 13:02:20;;;;;;;9.80;5.93;;;22.80;57.10;;;;;;4969598;28;20031;-71
2022/12/14 13:04:50;;;;;;;8.82;6.30;;;22.80;56.50;;;;;;5001297;28;20034;-71
2022/12/14 13:07:28;;;;;;;9.50;5.35;;;22.80;56.60;;;;;;5016475;28;20187;-71
2022/12/14 13:10:05;;;;;;;10.05;5.45;;;22.70;56.60;;;;;;5029761;28;20045;-71
2022/12/14 13:12:45;;;;;;;8.90;6.40;;;22.70;56.60;;;;;;5030490;28;20030;-71
2022/12/14 13:15:26;;;;;;;8.70;5.45;;;22.60;57.00;;;;;;5030357;28;20199;-71
2022/12/14 13:18:01;;;;;;;9.13;5.95;;;22.70;57.00;;;;;;5030212;28;20041;-71